sensor_id;sensor_type;location;lat;lon;timestamp;temperature;humidity
29551;DHT22;16488;52.396;10.696;2023-12-22T00:00:11;3.80;99.90
29551;DHT22;16488;52.396;10.696;2023-12-22T00:02:37;3.80;99.90
29551;DHT22;16488;52.396;10.696;2023-12-22T00:05:03;3.70;99.90
29551;DHT22;16488;52.396;10.696;2023-12-22T00:07:28;3.60;99.90
29551;DHT22;16488;52.396;10.696;2023-12-22T00:09:54;3.60;99.90
29551;DHT22;16488;52.396;10.696;2023-12-22T00:12:19;3.50;99.90
29551;DHT22;16488;52.396;10.696;2023-12-22T00:14:45;3.50;99.90
29551;DHT22;16488;52.396;10.696;2023-12-22T00:17:10;3.60;99.90
29551;DHT22;16488;52.396;10.696;2023-12-22T00:19:36;3.60;99.90
29551;DHT22;16488;52.396;10.696;2023-12-22T00:22:01;3.60;99.90
29551;DHT22;16488;52.396;10.696;2023-12-22T00:24:29;3.60;99.90
29551;DHT22;16488;52.396;10.696;2023-12-22T00:26:54;3.60;99.90
29551;DHT22;16488;52.396;10.696;2023-12-22T00:29:20;3.60;99.90
29551;DHT22;16488;52.396;10.696;2023-12-22T00:31:45;3.70;99.90
29551;DHT22;16488;52.396;10.696;2023-12-22T00:34:11;3.70;99.90
29551;DHT22;16488;52.396;10.696;2023-12-22T00:36:36;3.90;99.90
29551;DHT22;16488;52.396;10.696;2023-12-22T00:39:02;4.00;99.90
29551;DHT22;16488;52.396;10.696;2023-12-22T00:41:28;4.10;99.90
29551;DHT22;16488;52.396;10.696;2023-12-22T00:43:53;4.20;99.90
29551;DHT22;16488;52.396;10.696;2023-12-22T00:46:19;4.30;99.90
29551;DHT22;16488;52.396;10.696;2023-12-22T00:48:45;4.30;99.90
29551;DHT22;16488;52.396;10.696;2023-12-22T00:51:11;4.30;99.90
29551;DHT22;16488;52.396;10.696;2023-12-22T00:53:36;4.50;99.90
29551;DHT22;16488;52.396;10.696;2023-12-22T00:56:02;4.50;99.90
29551;DHT22;16488;52.396;10.696;2023-12-22T00:58:29;4.50;99.90
29551;DHT22;16488;52.396;10.696;2023-12-22T01:00:54;4.60;99.90
29551;DHT22;16488;52.396;10.696;2023-12-22T01:03:20;4.60;99.90
29551;DHT22;16488;52.396;10.696;2023-12-22T01:05:45;4.50;99.90
29551;DHT22;16488;52.396;10.696;2023-12-22T01:08:11;4.60;99.90
29551;DHT22;16488;52.396;10.696;2023-12-22T01:10:36;4.60;99.90
29551;DHT22;16488;52.396;10.696;2023-12-22T01:13:02;4.50;99.90
29551;DHT22;16488;52.396;10.696;2023-12-22T01:15:28;4.60;99.90
29551;DHT22;16488;52.396;10.696;2023-12-22T01:17:53;4.70;99.90
29551;DHT22;16488;52.396;10.696;2023-12-22T01:20:19;4.80;99.90
29551;DHT22;16488;52.396;10.696;2023-12-22T01:22:44;4.80;99.90
29551;DHT22;16488;52.396;10.696;2023-12-22T01:25:10;4.70;99.90
29551;DHT22;16488;52.396;10.696;2023-12-22T01:27:35;4.70;99.90
29551;DHT22;16488;52.396;10.696;2023-12-22T01:30:01;4.60;99.90
29551;DHT22;16488;52.396;10.696;2023-12-22T01:32:26;4.60;99.90
29551;DHT22;16488;52.396;10.696;2023-12-22T01:34:58;4.50;99.90
29551;DHT22;16488;52.396;10.696;2023-12-22T01:37:25;4.60;99.90
29551;DHT22;16488;52.396;10.696;2023-12-22T01:39:51;4.70;99.90
29551;DHT22;16488;52.396;10.696;2023-12-22T01:42:16;4.70;99.90
29551;DHT22;16488;52.396;10.696;2023-12-22T01:44:42;4.70;99.90
29551;DHT22;16488;52.396;10.696;2023-12-22T01:47:07;4.70;99.90
29551;DHT22;16488;52.396;10.696;2023-12-22T01:49:33;4.80;99.90
29551;DHT22;16488;52.396;10.696;2023-12-22T01:51:58;4.70;99.90
29551;DHT22;16488;52.396;10.696;2023-12-22T01:54:24;4.70;99.90
29551;DHT22;16488;52.396;10.696;2023-12-22T01:56:50;4.70;99.90
29551;DHT22;16488;52.396;10.696;2023-12-22T01:59:15;4.60;99.90
29551;DHT22;16488;52.396;10.696;2023-12-22T02:01:41;4.50;99.90
29551;DHT22;16488;52.396;10.696;2023-12-22T02:04:09;4.50;99.90
29551;DHT22;16488;52.396;10.696;2023-12-22T02:06:35;4.60;99.90
29551;DHT22;16488;52.396;10.696;2023-12-22T02:09:01;4.50;99.90
29551;DHT22;16488;52.396;10.696;2023-12-22T02:11:27;4.50;99.90
29551;DHT22;16488;52.396;10.696;2023-12-22T02:13:52;4.60;99.90
29551;DHT22;16488;52.396;10.696;2023-12-22T02:18:43;4.50;99.90
29551;DHT22;16488;52.396;10.696;2023-12-22T02:21:11;4.50;99.90
29551;DHT22;16488;52.396;10.696;2023-12-22T02:23:37;4.50;99.90
29551;DHT22;16488;52.396;10.696;2023-12-22T02:26:48;4.60;99.90
29551;DHT22;16488;52.396;10.696;2023-12-22T02:28:48;4.60;99.90
29551;DHT22;16488;52.396;10.696;2023-12-22T02:31:30;4.40;99.90
29551;DHT22;16488;52.396;10.696;2023-12-22T02:33:58;4.40;99.90
29551;DHT22;16488;52.396;10.696;2023-12-22T02:36:24;4.30;99.90
29551;DHT22;16488;52.396;10.696;2023-12-22T02:38:50;4.20;99.90
29551;DHT22;16488;52.396;10.696;2023-12-22T02:41:17;4.20;99.90
29551;DHT22;16488;52.396;10.696;2023-12-22T02:43:43;4.30;99.90
29551;DHT22;16488;52.396;10.696;2023-12-22T02:46:15;4.30;99.90
29551;DHT22;16488;52.396;10.696;2023-12-22T02:48:41;4.20;99.90
29551;DHT22;16488;52.396;10.696;2023-12-22T02:51:06;4.30;99.90
29551;DHT22;16488;52.396;10.696;2023-12-22T02:53:32;4.20;99.90
29551;DHT22;16488;52.396;10.696;2023-12-22T02:55:57;4.20;99.90
29551;DHT22;16488;52.396;10.696;2023-12-22T02:58:23;4.10;99.90
29551;DHT22;16488;52.396;10.696;2023-12-22T03:00:48;4.20;99.90
29551;DHT22;16488;52.396;10.696;2023-12-22T03:03:14;4.20;99.90
29551;DHT22;16488;52.396;10.696;2023-12-22T03:05:40;4.20;99.90
29551;DHT22;16488;52.396;10.696;2023-12-22T03:08:05;4.20;99.90
29551;DHT22;16488;52.396;10.696;2023-12-22T03:10:31;4.20;99.90
29551;DHT22;16488;52.396;10.696;2023-12-22T03:12:56;4.20;99.90
29551;DHT22;16488;52.396;10.696;2023-12-22T03:15:22;4.20;99.90
29551;DHT22;16488;52.396;10.696;2023-12-22T03:17:47;4.20;99.90
29551;DHT22;16488;52.396;10.696;2023-12-22T03:20:13;4.20;99.90
29551;DHT22;16488;52.396;10.696;2023-12-22T03:22:38;4.20;99.90
29551;DHT22;16488;52.396;10.696;2023-12-22T03:25:04;4.20;99.90
29551;DHT22;16488;52.396;10.696;2023-12-22T03:27:30;4.20;99.90
29551;DHT22;16488;52.396;10.696;2023-12-22T03:29:55;4.20;99.90
29551;DHT22;16488;52.396;10.696;2023-12-22T03:32:21;4.30;99.90
29551;DHT22;16488;52.396;10.696;2023-12-22T03:34:46;4.30;99.90
29551;DHT22;16488;52.396;10.696;2023-12-22T03:37:12;4.20;99.90
29551;DHT22;16488;52.396;10.696;2023-12-22T03:39:37;4.20;99.90
29551;DHT22;16488;52.396;10.696;2023-12-22T03:42:03;4.30;99.90
29551;DHT22;16488;52.396;10.696;2023-12-22T03:44:29;4.20;99.90
29551;DHT22;16488;52.396;10.696;2023-12-22T03:46:54;4.20;99.90
29551;DHT22;16488;52.396;10.696;2023-12-22T03:49:20;4.10;99.90
29551;DHT22;16488;52.396;10.696;2023-12-22T03:51:45;4.00;99.90
29551;DHT22;16488;52.396;10.696;2023-12-22T03:54:11;4.00;99.90
29551;DHT22;16488;52.396;10.696;2023-12-22T03:56:37;4.00;99.90
29551;DHT22;16488;52.396;10.696;2023-12-22T03:59:08;3.90;99.90
29551;DHT22;16488;52.396;10.696;2023-12-22T04:01:34;3.90;99.90
29551;DHT22;16488;52.396;10.696;2023-12-22T04:03:59;3.80;99.90
29551;DHT22;16488;52.396;10.696;2023-12-22T04:06:25;3.70;99.90
29551;DHT22;16488;52.396;10.696;2023-12-22T04:08:52;3.70;99.90
29551;DHT22;16488;52.396;10.696;2023-12-22T04:11:17;3.70;99.90
29551;DHT22;16488;52.396;10.696;2023-12-22T04:13:43;3.70;99.90
29551;DHT22;16488;52.396;10.696;2023-12-22T04:16:08;3.70;99.90
29551;DHT22;16488;52.396;10.696;2023-12-22T04:18:34;3.70;99.90
29551;DHT22;16488;52.396;10.696;2023-12-22T04:20:59;3.70;99.90
29551;DHT22;16488;52.396;10.696;2023-12-22T04:23:25;3.80;99.90
29551;DHT22;16488;52.396;10.696;2023-12-22T04:25:50;3.80;99.90
29551;DHT22;16488;52.396;10.696;2023-12-22T04:28:16;3.80;99.90
29551;DHT22;16488;52.396;10.696;2023-12-22T04:30:41;3.80;99.90
29551;DHT22;16488;52.396;10.696;2023-12-22T04:33:07;3.80;99.90
29551;DHT22;16488;52.396;10.696;2023-12-22T04:35:33;3.70;99.90
29551;DHT22;16488;52.396;10.696;2023-12-22T04:37:58;3.80;99.90
29551;DHT22;16488;52.396;10.696;2023-12-22T04:40:24;3.80;99.90
29551;DHT22;16488;52.396;10.696;2023-12-22T04:42:49;3.90;99.90
29551;DHT22;16488;52.396;10.696;2023-12-22T04:45:15;4.00;99.90
29551;DHT22;16488;52.396;10.696;2023-12-22T04:47:42;4.10;99.90
29551;DHT22;16488;52.396;10.696;2023-12-22T04:50:08;4.10;99.90
29551;DHT22;16488;52.396;10.696;2023-12-22T04:52:33;4.10;99.90
29551;DHT22;16488;52.396;10.696;2023-12-22T04:54:59;4.20;99.90
29551;DHT22;16488;52.396;10.696;2023-12-22T04:57:24;4.10;99.90
29551;DHT22;16488;52.396;10.696;2023-12-22T04:59:50;4.20;99.90
29551;DHT22;16488;52.396;10.696;2023-12-22T05:02:15;4.30;99.90
29551;DHT22;16488;52.396;10.696;2023-12-22T05:04:41;4.30;99.90
29551;DHT22;16488;52.396;10.696;2023-12-22T05:07:07;4.30;99.90
29551;DHT22;16488;52.396;10.696;2023-12-22T05:09:33;4.20;99.90
29551;DHT22;16488;52.396;10.696;2023-12-22T05:11:59;4.10;99.90
29551;DHT22;16488;52.396;10.696;2023-12-22T05:14:24;4.00;99.90
29551;DHT22;16488;52.396;10.696;2023-12-22T05:16:50;4.00;99.90
29551;DHT22;16488;52.396;10.696;2023-12-22T05:19:20;3.90;99.90
29551;DHT22;16488;52.396;10.696;2023-12-22T05:21:46;3.90;99.90
29551;DHT22;16488;52.396;10.696;2023-12-22T05:24:11;3.90;99.90
29551;DHT22;16488;52.396;10.696;2023-12-22T05:26:37;4.00;99.90
29551;DHT22;16488;52.396;10.696;2023-12-22T05:29:02;4.00;99.90
29551;DHT22;16488;52.396;10.696;2023-12-22T05:31:28;3.90;99.90
29551;DHT22;16488;52.396;10.696;2023-12-22T05:33:54;3.80;99.90
29551;DHT22;16488;52.396;10.696;2023-12-22T05:36:20;3.30;99.90
29551;DHT22;16488;52.396;10.696;2023-12-22T05:38:46;3.10;99.90
29551;DHT22;16488;52.396;10.696;2023-12-22T05:41:13;2.90;99.90
29551;DHT22;16488;52.396;10.696;2023-12-22T05:43:38;2.80;99.90
29551;DHT22;16488;52.396;10.696;2023-12-22T05:46:04;2.70;99.90
29551;DHT22;16488;52.396;10.696;2023-12-22T05:48:29;2.60;99.90
29551;DHT22;16488;52.396;10.696;2023-12-22T05:50:58;2.60;99.90
29551;DHT22;16488;52.396;10.696;2023-12-22T05:53:24;2.60;99.90
29551;DHT22;16488;52.396;10.696;2023-12-22T05:55:49;2.60;99.90
29551;DHT22;16488;52.396;10.696;2023-12-22T05:58:15;2.60;99.90
29551;DHT22;16488;52.396;10.696;2023-12-22T06:00:40;2.50;99.90
29551;DHT22;16488;52.396;10.696;2023-12-22T06:03:06;2.40;99.90
29551;DHT22;16488;52.396;10.696;2023-12-22T06:05:31;2.50;99.90
29551;DHT22;16488;52.396;10.696;2023-12-22T06:07:57;2.50;99.90
29551;DHT22;16488;52.396;10.696;2023-12-22T06:10:22;2.70;99.90
29551;DHT22;16488;52.396;10.696;2023-12-22T06:12:48;2.90;99.90
29551;DHT22;16488;52.396;10.696;2023-12-22T06:15:13;2.90;99.90
29551;DHT22;16488;52.396;10.696;2023-12-22T06:17:39;3.00;99.90
29551;DHT22;16488;52.396;10.696;2023-12-22T06:20:05;3.00;99.90
29551;DHT22;16488;52.396;10.696;2023-12-22T06:22:30;3.00;99.90
29551;DHT22;16488;52.396;10.696;2023-12-22T06:24:57;3.00;99.90
29551;DHT22;16488;52.396;10.696;2023-12-22T06:27:23;3.10;99.90
29551;DHT22;16488;52.396;10.696;2023-12-22T06:29:48;3.10;99.90
29551;DHT22;16488;52.396;10.696;2023-12-22T06:32:14;3.10;99.90
29551;DHT22;16488;52.396;10.696;2023-12-22T06:34:40;3.20;99.90
29551;DHT22;16488;52.396;10.696;2023-12-22T06:37:05;3.30;99.90
29551;DHT22;16488;52.396;10.696;2023-12-22T06:39:33;3.50;99.90
29551;DHT22;16488;52.396;10.696;2023-12-22T06:41:58;3.60;99.90
29551;DHT22;16488;52.396;10.696;2023-12-22T06:44:24;3.70;99.90
29551;DHT22;16488;52.396;10.696;2023-12-22T06:46:51;3.70;99.90
29551;DHT22;16488;52.396;10.696;2023-12-22T06:49:16;3.60;99.90
29551;DHT22;16488;52.396;10.696;2023-12-22T06:51:42;3.60;99.90
29551;DHT22;16488;52.396;10.696;2023-12-22T06:54:07;3.60;99.90
29551;DHT22;16488;52.396;10.696;2023-12-22T06:56:33;3.60;99.90
29551;DHT22;16488;52.396;10.696;2023-12-22T06:58:59;3.40;99.90
29551;DHT22;16488;52.396;10.696;2023-12-22T07:01:27;3.10;99.90
29551;DHT22;16488;52.396;10.696;2023-12-22T07:03:53;2.90;99.90
29551;DHT22;16488;52.396;10.696;2023-12-22T07:06:19;2.90;99.90
29551;DHT22;16488;52.396;10.696;2023-12-22T07:08:44;2.80;99.90
29551;DHT22;16488;52.396;10.696;2023-12-22T07:11:22;2.70;99.90
29551;DHT22;16488;52.396;10.696;2023-12-22T07:13:47;2.60;99.90
29551;DHT22;16488;52.396;10.696;2023-12-22T07:16:13;2.50;99.90
29551;DHT22;16488;52.396;10.696;2023-12-22T07:18:38;2.50;99.90
29551;DHT22;16488;52.396;10.696;2023-12-22T07:21:04;2.50;99.90
29551;DHT22;16488;52.396;10.696;2023-12-22T07:23:29;2.60;99.90
29551;DHT22;16488;52.396;10.696;2023-12-22T07:25:55;2.60;99.90
29551;DHT22;16488;52.396;10.696;2023-12-22T07:28:20;2.60;99.90
29551;DHT22;16488;52.396;10.696;2023-12-22T07:30:46;2.70;99.90
29551;DHT22;16488;52.396;10.696;2023-12-22T07:33:11;2.90;99.90
29551;DHT22;16488;52.396;10.696;2023-12-22T07:35:37;3.00;99.90
29551;DHT22;16488;52.396;10.696;2023-12-22T07:38:03;3.10;99.90
29551;DHT22;16488;52.396;10.696;2023-12-22T07:40:28;3.10;99.90
29551;DHT22;16488;52.396;10.696;2023-12-22T07:42:56;3.10;99.90
29551;DHT22;16488;52.396;10.696;2023-12-22T07:45:21;3.40;99.90
29551;DHT22;16488;52.396;10.696;2023-12-22T07:47:47;3.50;99.90
29551;DHT22;16488;52.396;10.696;2023-12-22T07:50:12;3.60;99.90
29551;DHT22;16488;52.396;10.696;2023-12-22T07:52:38;3.60;99.90
29551;DHT22;16488;52.396;10.696;2023-12-22T07:55:05;3.60;99.90
29551;DHT22;16488;52.396;10.696;2023-12-22T07:57:31;3.60;99.90
29551;DHT22;16488;52.396;10.696;2023-12-22T07:59:56;3.60;99.90
29551;DHT22;16488;52.396;10.696;2023-12-22T08:02:22;3.60;99.90
29551;DHT22;16488;52.396;10.696;2023-12-22T08:04:48;3.70;99.90
29551;DHT22;16488;52.396;10.696;2023-12-22T08:07:14;3.70;99.90
29551;DHT22;16488;52.396;10.696;2023-12-22T08:09:40;3.80;99.90
29551;DHT22;16488;52.396;10.696;2023-12-22T08:12:05;3.70;99.90
29551;DHT22;16488;52.396;10.696;2023-12-22T08:14:31;3.80;99.90
29551;DHT22;16488;52.396;10.696;2023-12-22T08:16:57;3.70;99.90
29551;DHT22;16488;52.396;10.696;2023-12-22T08:19:22;3.80;99.90
29551;DHT22;16488;52.396;10.696;2023-12-22T08:21:48;3.90;99.90
29551;DHT22;16488;52.396;10.696;2023-12-22T08:24:13;3.90;99.90
29551;DHT22;16488;52.396;10.696;2023-12-22T08:26:39;3.90;99.90
29551;DHT22;16488;52.396;10.696;2023-12-22T08:29:05;4.00;99.90
29551;DHT22;16488;52.396;10.696;2023-12-22T08:31:31;4.10;99.90
29551;DHT22;16488;52.396;10.696;2023-12-22T08:33:56;4.00;99.90
29551;DHT22;16488;52.396;10.696;2023-12-22T08:36:22;4.10;99.90
29551;DHT22;16488;52.396;10.696;2023-12-22T08:38:47;4.10;99.90
29551;DHT22;16488;52.396;10.696;2023-12-22T08:41:13;4.00;99.90
29551;DHT22;16488;52.396;10.696;2023-12-22T08:43:39;4.00;99.90
29551;DHT22;16488;52.396;10.696;2023-12-22T08:46:05;3.90;99.90
29551;DHT22;16488;52.396;10.696;2023-12-22T08:48:31;3.80;99.90
29551;DHT22;16488;52.396;10.696;2023-12-22T08:50:57;3.90;99.90
29551;DHT22;16488;52.396;10.696;2023-12-22T08:53:22;4.00;99.90
29551;DHT22;16488;52.396;10.696;2023-12-22T08:55:48;4.00;99.90
29551;DHT22;16488;52.396;10.696;2023-12-22T08:58:13;4.00;99.90
29551;DHT22;16488;52.396;10.696;2023-12-22T09:00:39;4.00;99.90
29551;DHT22;16488;52.396;10.696;2023-12-22T09:03:04;4.00;99.90
29551;DHT22;16488;52.396;10.696;2023-12-22T09:05:30;4.00;99.90
29551;DHT22;16488;52.396;10.696;2023-12-22T09:07:56;4.00;99.90
29551;DHT22;16488;52.396;10.696;2023-12-22T09:10:21;4.00;99.90
29551;DHT22;16488;52.396;10.696;2023-12-22T09:12:47;4.10;99.90
29551;DHT22;16488;52.396;10.696;2023-12-22T09:15:12;4.10;99.90
29551;DHT22;16488;52.396;10.696;2023-12-22T09:17:38;4.10;99.90
29551;DHT22;16488;52.396;10.696;2023-12-22T09:20:04;4.00;99.90
29551;DHT22;16488;52.396;10.696;2023-12-22T09:22:30;4.10;99.90
29551;DHT22;16488;52.396;10.696;2023-12-22T09:24:55;4.10;99.90
29551;DHT22;16488;52.396;10.696;2023-12-22T09:27:21;4.20;99.90
29551;DHT22;16488;52.396;10.696;2023-12-22T09:29:47;4.30;99.90
29551;DHT22;16488;52.396;10.696;2023-12-22T09:32:12;4.30;99.90
29551;DHT22;16488;52.396;10.696;2023-12-22T09:34:38;4.40;99.90
29551;DHT22;16488;52.396;10.696;2023-12-22T09:37:04;4.50;99.90
29551;DHT22;16488;52.396;10.696;2023-12-22T09:39:30;4.70;99.90
29551;DHT22;16488;52.396;10.696;2023-12-22T09:41:55;4.90;99.90
29551;DHT22;16488;52.396;10.696;2023-12-22T09:44:21;5.50;99.90
29551;DHT22;16488;52.396;10.696;2023-12-22T09:46:50;5.50;99.90
29551;DHT22;16488;52.396;10.696;2023-12-22T09:49:20;5.50;99.90
29551;DHT22;16488;52.396;10.696;2023-12-22T09:51:46;5.50;99.90
29551;DHT22;16488;52.396;10.696;2023-12-22T09:54:13;5.30;99.90
29551;DHT22;16488;52.396;10.696;2023-12-22T09:56:38;5.50;99.90
29551;DHT22;16488;52.396;10.696;2023-12-22T09:59:11;5.50;99.90
29551;DHT22;16488;52.396;10.696;2023-12-22T10:01:41;5.50;99.90
29551;DHT22;16488;52.396;10.696;2023-12-22T10:04:07;5.40;99.90
29551;DHT22;16488;52.396;10.696;2023-12-22T10:06:33;5.50;99.90
29551;DHT22;16488;52.396;10.696;2023-12-22T10:08:59;5.50;99.90
29551;DHT22;16488;52.396;10.696;2023-12-22T10:11:25;5.40;99.90
29551;DHT22;16488;52.396;10.696;2023-12-22T10:13:50;5.40;99.90
29551;DHT22;16488;52.396;10.696;2023-12-22T10:16:18;5.30;99.90
29551;DHT22;16488;52.396;10.696;2023-12-22T10:18:43;5.20;99.90
29551;DHT22;16488;52.396;10.696;2023-12-22T10:21:09;5.20;99.90
29551;DHT22;16488;52.396;10.696;2023-12-22T10:23:35;5.10;99.90
29551;DHT22;16488;52.396;10.696;2023-12-22T10:26:00;5.10;99.90
29551;DHT22;16488;52.396;10.696;2023-12-22T10:28:29;5.10;99.90
29551;DHT22;16488;52.396;10.696;2023-12-22T10:30:54;5.00;99.90
29551;DHT22;16488;52.396;10.696;2023-12-22T10:33:22;5.00;99.90
29551;DHT22;16488;52.396;10.696;2023-12-22T10:35:48;4.90;99.90
29551;DHT22;16488;52.396;10.696;2023-12-22T10:38:17;4.80;99.90
29551;DHT22;16488;52.396;10.696;2023-12-22T10:40:43;4.80;99.90
29551;DHT22;16488;52.396;10.696;2023-12-22T10:43:10;4.70;99.90
29551;DHT22;16488;52.396;10.696;2023-12-22T10:45:36;4.60;99.90
29551;DHT22;16488;52.396;10.696;2023-12-22T10:48:01;4.60;99.90
29551;DHT22;16488;52.396;10.696;2023-12-22T10:50:27;4.60;99.90
29551;DHT22;16488;52.396;10.696;2023-12-22T10:52:53;4.60;99.90
29551;DHT22;16488;52.396;10.696;2023-12-22T10:55:18;4.70;99.90
29551;DHT22;16488;52.396;10.696;2023-12-22T10:57:47;4.80;99.90
29551;DHT22;16488;52.396;10.696;2023-12-22T11:00:14;4.80;99.90
29551;DHT22;16488;52.396;10.696;2023-12-22T11:02:42;4.80;99.90
29551;DHT22;16488;52.396;10.696;2023-12-22T11:05:07;4.80;99.90
29551;DHT22;16488;52.396;10.696;2023-12-22T11:07:35;4.70;99.90
29551;DHT22;16488;52.396;10.696;2023-12-22T11:10:03;4.70;99.90
29551;DHT22;16488;52.396;10.696;2023-12-22T11:12:31;4.60;99.90
